createdAt,value
2019-03-05T00:00:05.678Z,8.00
2019-03-05T00:01:05.672Z,8.00
2019-03-05T00:02:05.659Z,8.00
2019-03-05T00:03:05.652Z,8.00
2019-03-05T00:04:05.649Z,8.00
2019-03-05T00:05:05.634Z,8.00
2019-03-05T00:06:05.623Z,8.00
2019-03-05T00:07:05.617Z,8.00
2019-03-05T00:08:05.609Z,8.00
2019-03-05T00:09:05.598Z,8.00
2019-03-05T00:10:05.588Z,8.00
2019-03-05T00:11:05.585Z,8.00
2019-03-05T00:12:05.570Z,8.00
2019-03-05T00:13:05.564Z,8.00
2019-03-05T00:14:05.553Z,8.00
2019-03-05T00:15:05.546Z,8.00
2019-03-05T00:16:05.538Z,8.00
2019-03-05T00:17:05.527Z,8.00
2019-03-05T00:18:05.566Z,8.00
2019-03-05T00:19:05.508Z,8.00
2019-03-05T00:20:05.505Z,8.00
2019-03-05T00:21:05.492Z,8.00
2019-03-05T00:22:05.483Z,8.00
2019-03-05T00:23:08.140Z,8.00
2019-03-05T00:24:05.468Z,8.00
2019-03-05T00:25:05.457Z,8.00
2019-03-05T00:26:05.459Z,8.00
2019-03-05T00:27:05.447Z,8.00
2019-03-05T00:28:05.430Z,8.00
2019-03-05T00:29:05.429Z,8.00
2019-03-05T00:30:05.411Z,8.00
2019-03-05T00:31:05.401Z,8.00
2019-03-05T00:32:05.404Z,8.00
2019-03-05T00:33:05.388Z,8.00
2019-03-05T00:34:05.374Z,8.00
2019-03-05T00:35:05.369Z,8.00
2019-03-05T00:36:05.357Z,8.00
2019-03-05T00:37:05.348Z,8.00
2019-03-05T00:38:05.339Z,8.00
2019-03-05T00:39:05.330Z,8.00
2019-03-05T00:40:05.321Z,8.00
2019-03-05T00:41:05.315Z,8.00
2019-03-05T00:42:05.866Z,8.00
2019-03-05T00:43:05.296Z,8.00
2019-03-05T00:44:05.286Z,8.00
2019-03-05T00:45:05.278Z,8.00
2019-03-05T00:46:05.269Z,8.00
2019-03-05T00:47:05.271Z,8.00
2019-03-05T00:48:05.317Z,8.00
2019-03-05T00:49:05.265Z,8.00
2019-03-05T00:50:05.246Z,8.00
2019-03-05T00:51:05.253Z,8.00
2019-03-05T00:52:05.219Z,8.00
2019-03-05T00:53:05.218Z,8.00
2019-03-05T00:54:05.196Z,8.00
2019-03-05T00:55:05.193Z,8.00
2019-03-05T00:56:05.180Z,8.00
2019-03-05T00:57:05.175Z,8.00
2019-03-05T00:58:05.164Z,8.00
2019-03-05T00:59:05.154Z,8.00
2019-03-05T01:00:05.148Z,8.00
2019-03-05T01:01:05.144Z,8.00
2019-03-05T01:02:05.125Z,8.00
2019-03-05T01:03:05.120Z,8.00
2019-03-05T01:04:05.109Z,8.00
2019-03-05T01:05:05.103Z,8.00
2019-03-05T01:06:05.091Z,8.00
2019-03-05T01:07:05.083Z,8.00
2019-03-05T01:08:05.075Z,8.00
2019-03-05T01:09:05.065Z,8.00
2019-03-05T01:10:05.054Z,8.00
2019-03-05T01:11:05.049Z,8.00
2019-03-05T01:12:05.039Z,8.00
2019-03-05T01:13:05.031Z,8.00
2019-03-05T01:14:05.022Z,8.00
2019-03-05T01:15:05.013Z,8.00
2019-03-05T01:16:05.002Z,8.00
2019-03-05T01:17:04.994Z,8.00
2019-03-05T01:18:04.995Z,8.00
2019-03-05T01:19:04.988Z,8.00
2019-03-05T01:20:04.981Z,8.00
2019-03-05T01:21:04.973Z,8.00
2019-03-05T01:22:04.966Z,8.00
2019-03-05T01:23:04.956Z,8.00
2019-03-05T01:24:04.945Z,8.00
2019-03-05T01:25:04.935Z,8.00
2019-03-05T01:26:04.924Z,8.00
2019-03-05T01:27:04.916Z,8.00
2019-03-05T01:28:04.915Z,8.00
2019-03-05T01:29:04.899Z,8.00
2019-03-05T01:30:04.889Z,8.00
2019-03-05T01:31:04.923Z,8.00
2019-03-05T01:32:04.874Z,8.00
2019-03-05T01:33:04.865Z,8.00
2019-03-05T01:34:04.854Z,8.00
2019-03-05T01:35:04.850Z,8.00
2019-03-05T01:36:04.841Z,8.00
2019-03-05T01:37:04.834Z,8.00
2019-03-05T01:38:04.818Z,8.00
2019-03-05T01:39:04.811Z,8.00
2019-03-05T01:40:04.802Z,8.00
2019-03-05T01:41:04.793Z,8.00
2019-03-05T01:42:04.783Z,8.00
2019-03-05T01:43:04.775Z,8.00
2019-03-05T01:44:04.767Z,8.00
2019-03-05T01:45:04.757Z,8.00
2019-03-05T01:46:04.750Z,8.00
2019-03-05T01:47:04.740Z,8.00
2019-03-05T01:48:04.736Z,8.00
2019-03-05T01:49:04.722Z,8.00
2019-03-05T01:50:04.712Z,8.00
2019-03-05T01:51:04.706Z,8.00
2019-03-05T01:52:04.697Z,8.00
2019-03-05T01:53:04.687Z,8.00
2019-03-05T01:54:04.681Z,8.00
2019-03-05T01:55:04.671Z,8.00
2019-03-05T01:56:04.662Z,8.00
2019-03-05T01:57:04.653Z,8.00
2019-03-05T01:58:04.643Z,8.00
2019-03-05T01:59:04.639Z,8.00
2019-03-05T02:00:04.627Z,8.00
2019-03-05T02:01:04.617Z,8.00
2019-03-05T02:02:04.609Z,8.00
2019-03-05T02:03:04.599Z,8.00
2019-03-05T02:04:04.591Z,8.00
2019-03-05T02:05:04.582Z,8.00
2019-03-05T02:06:04.573Z,8.00
2019-03-05T02:07:04.567Z,8.00
2019-03-05T02:08:04.554Z,8.00
2019-03-05T02:09:04.547Z,8.00
2019-03-05T02:10:04.586Z,8.00
2019-03-05T02:11:04.527Z,8.00
2019-03-05T02:12:04.526Z,8.00
2019-03-05T02:13:04.513Z,8.00
2019-03-05T02:14:05.013Z,8.00
2019-03-05T02:15:04.492Z,8.00
2019-03-05T02:16:04.492Z,8.00
2019-03-05T02:17:04.475Z,8.00
2019-03-05T02:18:04.476Z,8.00
2019-03-05T02:19:04.450Z,8.00
2019-03-05T02:20:04.444Z,8.00
2019-03-05T02:21:04.439Z,8.00
2019-03-05T02:22:04.429Z,8.00
2019-03-05T02:23:04.420Z,8.00
2019-03-05T02:24:04.411Z,8.00
2019-03-05T02:25:04.417Z,8.00
2019-03-05T02:26:04.393Z,8.00
2019-03-05T02:27:04.388Z,8.00
2019-03-05T02:28:04.375Z,8.00
2019-03-05T02:29:04.369Z,8.00
2019-03-05T02:30:04.358Z,8.00
2019-03-05T02:31:04.356Z,8.00
2019-03-05T02:32:04.373Z,8.00
2019-03-05T02:33:04.335Z,8.00
2019-03-05T02:34:04.321Z,8.00
2019-03-05T02:35:04.313Z,8.00
2019-03-05T02:36:04.304Z,8.00
2019-03-05T02:37:04.321Z,8.00
2019-03-05T02:38:05.645Z,8.00
2019-03-05T02:39:04.270Z,8.00
2019-03-05T02:40:04.267Z,8.00
2019-03-05T02:41:04.261Z,8.00
2019-03-05T02:42:04.252Z,8.00
2019-03-05T02:43:04.261Z,8.00
2019-03-05T02:44:04.240Z,8.00
2019-03-05T02:45:04.232Z,8.00
2019-03-05T02:46:04.219Z,8.00
2019-03-05T02:47:04.205Z,8.00
2019-03-05T02:48:04.200Z,8.00
2019-03-05T02:49:04.188Z,8.00
2019-03-05T02:50:04.181Z,8.00
2019-03-05T02:51:04.174Z,8.00
2019-03-05T02:52:04.161Z,8.00
2019-03-05T02:53:04.151Z,8.00
2019-03-05T02:54:04.141Z,8.00
2019-03-05T02:55:04.131Z,8.00
2019-03-05T02:56:04.123Z,8.00
2019-03-05T02:57:04.118Z,8.00
2019-03-05T02:58:04.111Z,8.00
2019-03-05T02:59:04.097Z,8.00
2019-03-05T03:00:04.089Z,8.00
2019-03-05T03:01:04.080Z,8.00
2019-03-05T03:02:04.070Z,8.00
2019-03-05T03:03:04.066Z,8.00
2019-03-05T03:04:04.064Z,8.00
2019-03-05T03:05:04.043Z,8.00
2019-03-05T03:06:04.036Z,8.00
2019-03-05T03:07:04.023Z,8.00
2019-03-05T03:08:04.017Z,8.00
2019-03-05T03:09:04.011Z,8.00
2019-03-05T03:10:03.997Z,8.00
2019-03-05T03:11:03.986Z,8.00
2019-03-05T03:12:03.987Z,8.00
2019-03-05T03:13:03.970Z,8.00
2019-03-05T03:14:03.964Z,8.00
2019-03-05T03:15:03.944Z,8.00
2019-03-05T03:16:03.949Z,8.00
2019-03-05T03:17:03.939Z,8.00
2019-03-05T03:18:03.913Z,8.00
2019-03-05T03:19:03.922Z,8.00
2019-03-05T03:20:03.897Z,8.00
2019-03-05T03:21:03.890Z,8.00
2019-03-05T03:22:03.885Z,8.00
2019-03-05T03:23:03.880Z,8.00
2019-03-05T03:24:03.877Z,8.00
2019-03-05T03:25:03.857Z,8.00
2019-03-05T03:26:03.842Z,8.00
2019-03-05T03:27:03.832Z,8.00
2019-03-05T03:28:03.824Z,8.00
2019-03-05T03:29:03.829Z,8.00
2019-03-05T03:30:03.806Z,8.00
2019-03-05T03:31:03.809Z,8.00
2019-03-05T03:32:03.790Z,8.00
2019-03-05T03:33:03.795Z,8.00
2019-03-05T03:34:03.771Z,8.00
2019-03-05T03:35:03.764Z,8.00
2019-03-05T03:36:03.760Z,8.00
2019-03-05T03:37:03.748Z,8.00
2019-03-05T03:38:03.747Z,8.00
2019-03-05T03:39:03.726Z,8.00
2019-03-05T03:40:06.195Z,8.00
2019-03-05T03:41:03.708Z,8.00
2019-03-05T03:42:03.709Z,8.00
2019-03-05T03:43:03.693Z,8.00
2019-03-05T03:44:03.684Z,8.00
2019-03-05T03:45:03.674Z,8.00
2019-03-05T03:46:04.177Z,8.00
2019-03-05T03:47:03.655Z,8.00
2019-03-05T03:48:03.643Z,8.00
2019-03-05T03:49:03.639Z,8.00
2019-03-05T03:50:03.629Z,8.00
2019-03-05T03:51:03.623Z,8.00
2019-03-05T03:52:03.632Z,8.00
2019-03-05T03:53:03.606Z,8.00
2019-03-05T03:54:03.590Z,8.00
2019-03-05T03:55:03.592Z,8.00
2019-03-05T03:56:03.582Z,8.00
2019-03-05T03:57:03.577Z,8.00
2019-03-05T03:58:03.555Z,8.00
2019-03-05T03:59:03.550Z,8.00
2019-03-05T04:00:03.538Z,8.00
2019-03-05T04:01:06.809Z,8.00
2019-03-05T04:02:03.518Z,8.00
2019-03-05T04:03:03.512Z,8.00
2019-03-05T04:04:03.506Z,8.00
2019-03-05T04:05:03.506Z,8.00
2019-03-05T04:06:03.483Z,8.00
2019-03-05T04:07:03.472Z,8.00
2019-03-05T04:08:03.472Z,8.00
2019-03-05T04:09:03.455Z,8.00
2019-03-05T04:10:03.446Z,8.00
2019-03-05T04:11:03.441Z,8.00
2019-03-05T04:12:03.427Z,8.00
2019-03-05T04:13:03.420Z,8.00
2019-03-05T04:14:03.414Z,8.00
2019-03-05T04:15:03.410Z,8.00
2019-03-05T04:16:03.391Z,8.00
2019-03-05T04:17:03.402Z,8.00
2019-03-05T04:18:39.332Z,8.00
2019-03-05T04:19:03.380Z,8.00
2019-03-05T04:20:03.360Z,8.00
2019-03-05T04:21:03.351Z,8.00
2019-03-05T04:22:03.343Z,8.00
2019-03-05T04:23:03.331Z,8.00
2019-03-05T04:24:03.328Z,8.00
2019-03-05T04:25:03.313Z,8.00
2019-03-05T04:26:03.302Z,8.00
2019-03-05T04:27:03.305Z,8.00
2019-03-05T04:28:03.292Z,8.00
2019-03-05T04:29:03.273Z,8.00
2019-03-05T04:30:03.271Z,8.00
2019-03-05T04:31:03.256Z,8.00
2019-03-05T04:32:03.251Z,8.00
2019-03-05T04:33:03.246Z,8.00
2019-03-05T04:34:03.232Z,8.00
2019-03-05T04:35:03.223Z,8.00
2019-03-05T04:36:03.211Z,8.00
2019-03-05T04:37:03.218Z,8.00
2019-03-05T04:38:03.190Z,8.00
2019-03-05T04:39:03.183Z,8.00
2019-03-05T04:40:03.563Z,8.00
2019-03-05T04:41:03.170Z,8.00
2019-03-05T04:42:03.162Z,8.00
2019-03-05T04:43:03.144Z,8.00
2019-03-05T04:44:03.144Z,8.00
2019-03-05T04:45:03.130Z,8.00
2019-03-05T04:46:03.125Z,8.00
2019-03-05T04:47:03.110Z,8.00
2019-03-05T04:48:03.103Z,8.00
2019-03-05T04:49:03.095Z,8.00
2019-03-05T04:50:03.095Z,4.00
2019-03-05T04:51:03.080Z,8.00
2019-03-05T04:52:03.066Z,8.00
2019-03-05T04:53:03.056Z,8.00
2019-03-05T04:54:03.058Z,8.00
2019-03-05T04:55:03.039Z,8.00
2019-03-05T04:56:03.037Z,8.00
2019-03-05T04:57:03.020Z,8.00
2019-03-05T04:58:03.011Z,8.00
2019-03-05T04:59:03.005Z,8.00
2019-03-05T05:00:02.994Z,8.00
2019-03-05T05:01:02.988Z,8.00
2019-03-05T05:02:02.975Z,8.00
2019-03-05T05:03:02.969Z,8.00
2019-03-05T05:04:02.955Z,8.00
2019-03-05T05:05:02.952Z,8.00
2019-03-05T05:06:02.946Z,8.00
2019-03-05T05:07:02.930Z,8.00
2019-03-05T05:08:02.922Z,8.00
2019-03-05T05:09:02.912Z,8.00
2019-03-05T05:10:02.898Z,8.00
2019-03-05T05:11:02.893Z,8.00
2019-03-05T05:12:02.885Z,8.00
2019-03-05T05:13:02.881Z,8.00
2019-03-05T05:14:02.863Z,8.00
2019-03-05T05:15:02.857Z,8.00
2019-03-05T05:16:02.850Z,8.00
2019-03-05T05:17:02.841Z,8.00
2019-03-05T05:18:03.337Z,8.00
2019-03-05T05:19:02.824Z,8.00
2019-03-05T05:20:02.819Z,8.00
2019-03-05T05:21:02.802Z,8.00
2019-03-05T05:22:02.790Z,8.00
2019-03-05T05:23:02.782Z,4.00
2019-03-05T05:24:02.772Z,8.00
2019-03-05T05:25:02.767Z,8.00
2019-03-05T05:26:02.759Z,8.00
2019-03-05T05:27:02.744Z,8.00
2019-03-05T05:28:02.734Z,12.00
2019-03-05T05:29:02.730Z,8.00
2019-03-05T05:30:02.721Z,8.00
2019-03-05T05:31:02.706Z,8.00
2019-03-05T05:32:02.699Z,12.00
2019-03-05T05:33:02.694Z,8.00
2019-03-05T05:34:02.681Z,4.00
2019-03-05T05:35:02.671Z,8.00
2019-03-05T05:36:02.675Z,8.00
2019-03-05T05:37:02.654Z,8.00
2019-03-05T05:38:02.654Z,12.00
2019-03-05T05:39:02.634Z,12.00
2019-03-05T05:40:04.739Z,16.00
2019-03-05T05:41:02.618Z,20.00
2019-03-05T05:42:02.608Z,24.00
2019-03-05T05:43:02.601Z,28.00
2019-03-05T05:44:02.588Z,28.00
2019-03-05T05:45:02.581Z,32.00
2019-03-05T05:46:02.573Z,36.00
2019-03-05T05:47:02.560Z,40.00
2019-03-05T05:48:02.557Z,44.00
2019-03-05T05:49:02.545Z,48.00
2019-03-05T05:50:02.533Z,52.00
2019-03-05T05:51:02.523Z,60.00
2019-03-05T05:52:02.552Z,64.00
2019-03-05T05:53:02.508Z,72.00
2019-03-05T05:54:02.494Z,76.00
2019-03-05T05:55:02.486Z,84.00
2019-03-05T05:56:02.475Z,88.00
2019-03-05T05:57:02.467Z,100.00
2019-03-05T05:58:02.456Z,104.00
2019-03-05T05:59:02.448Z,112.00
2019-03-05T06:00:02.436Z,120.00
2019-03-05T06:01:02.505Z,124.00
2019-03-05T06:02:02.423Z,132.00
2019-03-05T06:03:02.417Z,140.00
2019-03-05T06:04:02.400Z,144.00
2019-03-05T06:05:02.392Z,148.00
2019-03-05T06:06:02.378Z,160.00
2019-03-05T06:07:02.369Z,172.00
2019-03-05T06:08:02.362Z,188.00
2019-03-05T06:09:02.356Z,192.00
2019-03-05T06:10:02.345Z,200.00
2019-03-05T06:11:02.340Z,208.00
2019-03-05T06:12:02.323Z,216.00
2019-03-05T06:13:02.330Z,224.00
2019-03-05T06:14:02.305Z,240.00
2019-03-05T06:15:02.299Z,248.00
2019-03-05T06:16:02.298Z,260.00
2019-03-05T06:17:02.279Z,272.00
2019-03-05T06:18:02.277Z,280.00
2019-03-05T06:19:02.260Z,292.00
2019-03-05T06:20:02.246Z,304.00
2019-03-05T06:21:02.242Z,320.00
2019-03-05T06:22:02.241Z,336.00
2019-03-05T06:23:02.253Z,352.00
2019-03-05T06:24:02.213Z,372.00
2019-03-05T06:25:02.205Z,396.00
2019-03-05T06:26:02.189Z,428.00
2019-03-05T06:27:02.194Z,456.00
2019-03-05T06:28:02.173Z,464.00
2019-03-05T06:29:02.162Z,488.00
2019-03-05T06:30:02.152Z,488.00
2019-03-05T06:31:02.144Z,496.00
2019-03-05T06:32:02.133Z,540.00
2019-03-05T06:33:02.126Z,552.00
2019-03-05T06:34:02.112Z,600.00
2019-03-05T06:35:02.107Z,620.00
2019-03-05T06:36:02.094Z,708.00
2019-03-05T06:37:02.170Z,660.00
2019-03-05T06:38:02.082Z,632.00
2019-03-05T06:39:02.067Z,628.00
2019-03-05T06:40:02.058Z,608.00
2019-03-05T06:41:02.050Z,604.00
2019-03-05T06:42:02.042Z,588.00
2019-03-05T06:43:02.030Z,584.00
2019-03-05T06:44:02.027Z,596.00
2019-03-05T06:45:02.015Z,608.00
2019-03-05T06:46:02.001Z,620.00
2019-03-05T06:47:02.008Z,632.00
2019-03-05T06:48:01.986Z,652.00
2019-03-05T06:49:01.976Z,640.00
2019-03-05T06:50:02.500Z,632.00
2019-03-05T06:51:01.955Z,624.00
2019-03-05T06:52:01.947Z,624.00
2019-03-05T06:53:01.937Z,628.00
2019-03-05T06:54:01.930Z,652.00
2019-03-05T06:55:01.933Z,668.00
2019-03-05T06:56:01.909Z,684.00
2019-03-05T06:57:01.905Z,692.00
2019-03-05T06:58:01.893Z,716.00
2019-03-05T06:59:01.895Z,716.00
2019-03-05T07:00:01.873Z,708.00
2019-03-05T07:01:01.863Z,680.00
2019-03-05T07:02:01.857Z,688.00
2019-03-05T07:03:01.849Z,696.00
2019-03-05T07:04:01.850Z,752.00
2019-03-05T07:05:01.828Z,860.00
2019-03-05T07:06:01.819Z,940.00
2019-03-05T07:07:01.808Z,976.00
2019-03-05T07:08:01.798Z,1020.00
2019-03-05T07:09:01.792Z,988.00
2019-03-05T07:10:01.825Z,1004.00
2019-03-05T07:11:01.771Z,1132.00
2019-03-05T07:12:01.763Z,1120.00
2019-03-05T07:13:01.757Z,1092.00
2019-03-05T07:14:01.746Z,1112.00
2019-03-05T07:15:01.736Z,1068.00
2019-03-05T07:16:01.726Z,980.00
2019-03-05T07:17:01.720Z,1000.00
2019-03-05T07:18:01.710Z,1040.00
2019-03-05T07:19:01.701Z,984.00
2019-03-05T07:20:01.690Z,976.00
2019-03-05T07:21:01.688Z,1128.00
2019-03-05T07:22:01.672Z,1100.00
2019-03-05T07:23:01.670Z,1308.00
2019-03-05T07:24:01.657Z,1432.00
2019-03-05T07:25:01.650Z,1328.00
2019-03-05T07:26:01.637Z,1304.00
2019-03-05T07:27:01.629Z,1188.00
2019-03-05T07:28:01.621Z,1012.00
2019-03-05T07:29:01.618Z,948.00
2019-03-05T07:30:01.610Z,980.00
2019-03-05T07:31:01.600Z,1036.00
2019-03-05T07:32:01.584Z,1084.00
2019-03-05T07:33:01.578Z,1040.00
2019-03-05T07:34:01.578Z,944.00
2019-03-05T07:35:01.561Z,920.00
2019-03-05T07:36:01.551Z,936.00
2019-03-05T07:37:01.540Z,952.00
2019-03-05T07:38:01.544Z,980.00
2019-03-05T07:39:01.527Z,1012.00
2019-03-05T07:40:01.513Z,1048.00
2019-03-05T07:41:01.509Z,1092.00
2019-03-05T07:42:01.499Z,1144.00
2019-03-05T07:43:01.490Z,1188.00
2019-03-05T07:44:01.480Z,1236.00
2019-03-05T07:45:01.474Z,1252.00
2019-03-05T07:46:01.461Z,1280.00
2019-03-05T07:47:01.459Z,1308.00
2019-03-05T07:48:01.450Z,1372.00
2019-03-05T07:49:01.443Z,1368.00
2019-03-05T07:50:01.432Z,1368.00
2019-03-05T07:51:01.418Z,1356.00
2019-03-05T07:52:01.408Z,1352.00
2019-03-05T07:53:01.402Z,1364.00
2019-03-05T07:54:01.390Z,1372.00
2019-03-05T07:55:12.912Z,1408.00
2019-03-05T07:56:01.383Z,1452.00
2019-03-05T07:57:01.366Z,1460.00
2019-03-05T07:58:01.359Z,1472.00
2019-03-05T07:59:01.347Z,1536.00
2019-03-05T08:00:01.373Z,1624.00
2019-03-05T08:01:01.332Z,1676.00
2019-03-05T08:02:01.324Z,1728.00
2019-03-05T08:03:01.317Z,1796.00
2019-03-05T08:04:01.308Z,1820.00
2019-03-05T08:05:01.299Z,1848.00
2019-03-05T08:06:01.292Z,1896.00
2019-03-05T08:07:01.286Z,1980.00
2019-03-05T08:08:01.274Z,1940.00
2019-03-05T08:09:01.265Z,1868.00
2019-03-05T08:10:01.257Z,1840.00
2019-03-05T08:11:01.250Z,1748.00
2019-03-05T08:12:01.253Z,1744.00
2019-03-05T08:13:01.231Z,1588.00
2019-03-05T08:14:01.224Z,1540.00
2019-03-05T08:15:01.215Z,1476.00
2019-03-05T08:16:02.782Z,1428.00
2019-03-05T08:17:01.198Z,1468.00
2019-03-05T08:18:01.194Z,1464.00
2019-03-05T08:19:01.192Z,1548.00
2019-03-05T08:20:01.173Z,1596.00
2019-03-05T08:21:01.165Z,1744.00
2019-03-05T08:22:01.668Z,1888.00
2019-03-05T08:23:01.147Z,1884.00
2019-03-05T08:24:01.143Z,1888.00
2019-03-05T08:25:01.134Z,1836.00
2019-03-05T08:26:01.187Z,1984.00
2019-03-05T08:27:01.118Z,2224.00
2019-03-05T08:28:01.110Z,2248.00
2019-03-05T08:29:02.962Z,2424.00
2019-03-05T08:30:01.092Z,2592.00
2019-03-05T08:31:01.088Z,2652.00
2019-03-05T08:32:01.076Z,2752.00
2019-03-05T08:33:01.076Z,2760.00
2019-03-05T08:34:01.062Z,2580.00
2019-03-05T08:35:01.054Z,2484.00
2019-03-05T08:36:01.046Z,2472.00
2019-03-05T08:37:01.047Z,2468.00
2019-03-05T08:38:01.046Z,2496.00
2019-03-05T08:39:01.026Z,2596.00
2019-03-05T08:40:01.014Z,2628.00
2019-03-05T08:41:01.007Z,2600.00
2019-03-05T08:42:01.007Z,2580.00
2019-03-05T08:43:00.995Z,2580.00
2019-03-05T08:44:00.985Z,2620.00
2019-03-05T08:45:00.982Z,2596.00
2019-03-05T08:46:00.971Z,2664.00
2019-03-05T08:47:00.960Z,2704.00
2019-03-05T08:48:00.957Z,2720.00
2019-03-05T08:49:00.950Z,2652.00
2019-03-05T08:50:00.942Z,2588.00
2019-03-05T08:51:00.931Z,2544.00
2019-03-05T08:52:00.925Z,2472.00
2019-03-05T08:53:00.918Z,2412.00
2019-03-05T08:54:00.910Z,2596.00
2019-03-05T08:55:00.915Z,2540.00
2019-03-05T08:56:00.896Z,2484.00
2019-03-05T08:57:00.890Z,2532.00
2019-03-05T08:58:00.885Z,2488.00
2019-03-05T08:59:00.880Z,2332.00
2019-03-05T09:00:00.868Z,2132.00
2019-03-05T09:01:00.866Z,2136.00
2019-03-05T09:02:00.855Z,2104.00
2019-03-05T09:03:00.855Z,2176.00
2019-03-05T09:04:00.837Z,2424.00
2019-03-05T09:05:00.832Z,2616.00
2019-03-05T09:06:00.824Z,2804.00
2019-03-05T09:07:00.817Z,2168.00
2019-03-05T09:08:00.811Z,2312.00
2019-03-05T09:09:00.814Z,2640.00
2019-03-05T09:10:00.795Z,2228.00
2019-03-05T09:11:00.791Z,2344.00
2019-03-05T09:12:00.787Z,2688.00
2019-03-05T09:13:00.772Z,2696.00
2019-03-05T09:14:00.781Z,2276.00
2019-03-05T09:15:00.759Z,2096.00
2019-03-05T09:16:00.784Z,2260.00
2019-03-05T09:17:00.779Z,2364.00
2019-03-05T09:18:00.755Z,2852.00
2019-03-05T09:19:00.990Z,2736.00
2019-03-05T09:20:00.730Z,3288.00
2019-03-05T09:21:00.716Z,3252.00
2019-03-05T09:22:00.710Z,3004.00
2019-03-05T09:23:00.702Z,3164.00
2019-03-05T09:24:00.819Z,3336.00
2019-03-05T09:25:00.705Z,3236.00
2019-03-05T09:26:00.697Z,3164.00
2019-03-05T09:27:00.677Z,3476.00
2019-03-05T09:28:00.668Z,3536.00
2019-03-05T09:29:00.663Z,3356.00
2019-03-05T09:30:00.660Z,3132.00
2019-03-05T09:31:00.649Z,3060.00
2019-03-05T09:32:00.643Z,3136.00
2019-03-05T09:33:00.647Z,3164.00
2019-03-05T09:34:00.629Z,3104.00
2019-03-05T09:35:00.622Z,3368.00
2019-03-05T09:36:00.665Z,3164.00
2019-03-05T09:37:00.608Z,3008.00
2019-03-05T09:38:00.604Z,3044.00
2019-03-05T09:39:03.087Z,2976.00
2019-03-05T09:40:00.607Z,3124.00
2019-03-05T09:41:00.614Z,3328.00
2019-03-05T09:42:00.576Z,3412.00
2019-03-05T09:43:00.628Z,3660.00
2019-03-05T09:44:00.561Z,3356.00
2019-03-05T09:45:00.578Z,3288.00
2019-03-05T09:46:00.547Z,3544.00
2019-03-05T09:47:00.618Z,3512.00
2019-03-05T09:48:00.538Z,3752.00
2019-03-05T09:49:00.566Z,3664.00
2019-03-05T09:50:00.522Z,3704.00
2019-03-05T09:51:00.520Z,3764.00
2019-03-05T09:52:00.539Z,3772.00
2019-03-05T09:53:00.504Z,3692.00
2019-03-05T09:54:00.830Z,3704.00
2019-03-05T09:55:00.491Z,3260.00
2019-03-05T09:56:02.382Z,2732.00
2019-03-05T09:57:00.480Z,2324.00
2019-03-05T09:58:08.045Z,2084.00
2019-03-05T09:59:00.463Z,2196.00
2019-03-05T10:00:00.464Z,2376.00
2019-03-05T10:01:00.456Z,2576.00
2019-03-05T10:02:00.453Z,2632.00
2019-03-05T10:03:00.445Z,2592.00
2019-03-05T10:04:00.433Z,2448.00
2019-03-05T10:05:00.429Z,2172.00
2019-03-05T10:06:00.418Z,1980.00
2019-03-05T10:07:00.414Z,2152.00
2019-03-05T10:08:00.411Z,2312.00
2019-03-05T10:09:00.422Z,2312.00
2019-03-05T10:10:00.395Z,2428.00
2019-03-05T10:11:00.386Z,2356.00
2019-03-05T10:12:02.362Z,2352.00
2019-03-05T10:13:04.358Z,2284.00
2019-03-05T10:14:01.447Z,2244.00
2019-03-05T10:15:00.602Z,2208.00
2019-03-05T10:16:00.387Z,2092.00
2019-03-05T10:17:00.350Z,2008.00
2019-03-05T10:18:11.770Z,1944.00
2019-03-05T10:19:00.339Z,1920.00
2019-03-05T10:20:00.332Z,1872.00
2019-03-05T10:21:00.326Z,1708.00
2019-03-05T10:22:00.318Z,1844.00
2019-03-05T10:23:00.315Z,1852.00
2019-03-05T10:24:10.159Z,1788.00
2019-03-05T10:25:05.967Z,1724.00
2019-03-05T10:26:00.297Z,1652.00
2019-03-05T10:27:00.285Z,1560.00
2019-03-05T10:28:01.871Z,1432.00
2019-03-05T10:29:00.277Z,1464.00
2019-03-05T10:30:00.303Z,1432.00
2019-03-05T10:31:00.329Z,1376.00
2019-03-05T10:32:00.264Z,1356.00
2019-03-05T10:33:00.247Z,1216.00
2019-03-05T10:34:00.238Z,1348.00
2019-03-05T10:35:00.347Z,1488.00
2019-03-05T10:36:00.227Z,1336.00
2019-03-05T10:37:00.219Z,1228.00
2019-03-05T10:38:00.220Z,1244.00
2019-03-05T10:39:00.206Z,1376.00
2019-03-05T10:40:00.211Z,1348.00
2019-03-05T10:41:00.197Z,1308.00
2019-03-05T10:42:00.187Z,1340.00
2019-03-05T10:43:08.090Z,1248.00
2019-03-05T10:44:00.188Z,1160.00
2019-03-05T10:45:00.356Z,1200.00
2019-03-05T10:46:00.161Z,1116.00
2019-03-05T10:47:00.156Z,1052.00
2019-03-05T10:48:00.145Z,1008.00
2019-03-05T10:49:00.139Z,1080.00
2019-03-05T10:50:00.338Z,948.00
2019-03-05T10:51:00.134Z,852.00
2019-03-05T10:52:00.116Z,916.00
2019-03-05T10:53:00.113Z,936.00
2019-03-05T10:54:02.125Z,996.00
2019-03-05T10:55:00.126Z,1164.00
2019-03-05T10:56:00.089Z,1276.00
2019-03-05T10:57:00.086Z,1252.00
2019-03-05T10:58:00.088Z,1192.00
2019-03-05T10:59:00.075Z,1192.00
2019-03-05T11:00:00.063Z,1216.00
2019-03-05T11:01:00.048Z,1248.00
2019-03-05T11:02:00.050Z,1316.00
2019-03-05T11:03:00.036Z,1456.00
2019-03-05T11:04:00.027Z,1512.00
2019-03-05T11:05:00.018Z,1620.00
2019-03-05T11:06:00.024Z,1736.00
2019-03-05T11:07:00.027Z,1824.00
2019-03-05T11:07:59.995Z,1864.00
2019-03-05T11:09:00.003Z,1864.00
2019-03-05T11:09:59.980Z,1852.00
2019-03-05T11:10:59.981Z,1836.00
2019-03-05T11:12:01.218Z,1828.00
2019-03-05T11:12:59.952Z,1796.00
2019-03-05T11:13:59.955Z,1784.00
2019-03-05T11:15:00.022Z,1788.00
2019-03-05T11:15:59.931Z,1696.00
2019-03-05T11:16:59.925Z,1528.00
2019-03-05T11:18:00.185Z,1420.00
2019-03-05T11:18:59.918Z,1376.00
2019-03-05T11:19:59.898Z,1344.00
2019-03-05T11:20:59.922Z,1356.00
2019-03-05T11:22:00.106Z,1352.00
2019-03-05T11:23:00.026Z,1360.00
2019-03-05T11:24:00.036Z,1360.00
2019-03-05T11:25:00.056Z,1356.00
2019-03-05T11:26:00.664Z,1448.00
2019-03-05T11:26:59.938Z,1568.00
2019-03-05T11:28:00.588Z,1632.00
2019-03-05T11:28:59.916Z,1740.00
2019-03-05T11:30:00.173Z,1948.00
2019-03-05T11:30:59.859Z,2108.00
2019-03-05T11:31:59.871Z,2108.00
2019-03-05T11:33:00.803Z,2192.00
2019-03-05T11:34:00.258Z,2040.00
2019-03-05T11:35:00.107Z,2028.00
2019-03-05T11:35:59.770Z,2140.00
2019-03-05T11:37:00.121Z,2408.00
2019-03-05T11:38:00.054Z,2472.00
2019-03-05T11:39:00.026Z,2544.00
2019-03-05T11:39:59.943Z,2664.00
2019-03-05T11:40:59.767Z,2728.00
2019-03-05T11:41:59.975Z,2764.00
2019-03-05T11:43:00.944Z,2756.00
2019-03-05T11:43:59.753Z,2688.00
2019-03-05T11:45:07.578Z,2668.00
2019-03-05T11:46:00.149Z,2832.00
2019-03-05T11:47:00.079Z,3012.00
2019-03-05T11:47:59.674Z,2944.00
2019-03-05T11:48:59.669Z,3224.00
2019-03-05T11:49:59.701Z,3320.00
2019-03-05T11:50:59.931Z,3324.00
2019-03-05T11:51:59.780Z,3176.00
2019-03-05T11:52:59.649Z,2844.00
2019-03-05T11:53:59.998Z,2564.00
2019-03-05T11:54:59.618Z,2436.00
2019-03-05T11:55:59.613Z,2380.00
2019-03-05T11:57:01.634Z,2476.00
2019-03-05T11:57:59.602Z,2648.00
2019-03-05T11:58:59.749Z,2968.00
2019-03-05T11:59:59.625Z,3056.00
2019-03-05T12:00:59.757Z,3376.00
2019-03-05T12:01:59.563Z,3464.00
2019-03-05T12:02:59.562Z,3916.00
2019-03-05T12:03:59.553Z,3848.00
2019-03-05T12:04:59.542Z,3728.00
2019-03-05T12:05:59.536Z,3904.00
2019-03-05T12:06:59.526Z,4156.00
2019-03-05T12:07:59.520Z,3912.00
2019-03-05T12:08:59.512Z,3684.00
2019-03-05T12:09:59.503Z,3688.00
2019-03-05T12:10:59.499Z,4452.00
2019-03-05T12:11:59.490Z,3688.00
2019-03-05T12:12:59.482Z,3792.00
2019-03-05T12:13:59.475Z,3300.00
2019-03-05T12:14:59.468Z,3120.00
2019-03-05T12:15:59.463Z,3152.00
2019-03-05T12:16:59.476Z,3340.00
2019-03-05T12:17:59.450Z,4128.00
2019-03-05T12:18:59.446Z,4072.00
2019-03-05T12:19:59.435Z,3684.00
2019-03-05T12:20:59.439Z,4024.00
2019-03-05T12:21:59.423Z,3436.00
2019-03-05T12:22:59.415Z,3068.00
2019-03-05T12:23:59.423Z,3160.00
2019-03-05T12:25:01.781Z,2896.00
2019-03-05T12:25:59.391Z,2912.00
2019-03-05T12:26:59.397Z,3000.00
2019-03-05T12:28:09.416Z,3112.00
2019-03-05T12:28:59.370Z,3224.00
2019-03-05T12:29:59.359Z,3336.00
2019-03-05T12:30:59.407Z,3440.00
2019-03-05T12:31:59.399Z,3396.00
2019-03-05T12:32:59.479Z,3464.00
2019-03-05T12:33:59.337Z,3632.00
2019-03-05T12:34:59.351Z,3880.00
2019-03-05T12:36:00.498Z,3904.00
2019-03-05T12:37:00.568Z,3560.00
2019-03-05T12:37:59.337Z,2980.00
2019-03-05T12:38:59.388Z,2364.00
2019-03-05T12:39:59.352Z,2096.00